createdAt,value
2022-08-05T00:01:30.244Z,49.17
2022-08-05T00:04:03.883Z,50.42
2022-08-05T00:06:33.264Z,51.09
2022-08-05T00:09:00.993Z,52.64
2022-08-05T00:11:34.607Z,52.46
2022-08-05T00:14:12.071Z,52.55
2022-08-05T00:16:52.622Z,52.34
2022-08-05T00:19:21.556Z,52.63
2022-08-05T00:21:48.851Z,52.86
2022-08-05T00:24:19.313Z,53.72
2022-08-05T00:26:53.018Z,53.54
2022-08-05T00:29:22.823Z,53.92
2022-08-05T00:32:10.986Z,54.19
2022-08-05T00:34:53.755Z,54.00
2022-08-05T00:37:27.032Z,54.88
2022-08-05T00:40:13.505Z,54.82
2022-08-05T00:42:44.341Z,55.18
2022-08-05T00:45:15.913Z,55.72
2022-08-05T00:47:53.098Z,55.88
2022-08-05T00:50:25.361Z,56.06
2022-08-05T00:52:53.392Z,56.21
2022-08-05T00:55:21.885Z,56.23
2022-08-05T00:57:58.211Z,56.54
2022-08-05T01:00:26.005Z,56.93
2022-08-05T01:02:52.729Z,56.94
2022-08-05T01:05:19.627Z,56.83
2022-08-05T01:08:30.693Z,56.79
2022-08-05T01:10:36.077Z,54.56
2022-08-05T01:13:13.312Z,55.97
2022-08-05T01:15:56.676Z,55.97
2022-08-05T01:18:29.686Z,56.32
2022-08-05T01:21:22.643Z,56.06
2022-08-05T01:24:14.236Z,56.14
2022-08-05T01:26:55.613Z,56.66
2022-08-05T01:29:34.911Z,56.65
2022-08-05T01:32:06.500Z,57.12
2022-08-05T01:34:45.843Z,56.73
2022-08-05T01:37:25.437Z,57.06
2022-08-05T01:39:59.086Z,57.40
2022-08-05T01:42:28.052Z,57.77
2022-08-05T01:44:59.925Z,57.76
2022-08-05T01:47:39.360Z,57.91
2022-08-05T01:50:28.758Z,58.07
2022-08-05T01:53:00.725Z,58.24
2022-08-05T01:55:30.922Z,58.37
2022-08-05T01:58:18.741Z,58.52
2022-08-05T02:00:53.167Z,59.00
2022-08-05T02:03:33.985Z,58.65
2022-08-05T02:06:33.450Z,59.41
2022-08-05T02:08:58.164Z,59.10
2022-08-05T02:11:32.894Z,59.18
2022-08-05T02:14:14.594Z,58.94
2022-08-05T02:16:52.889Z,58.78
2022-08-05T02:19:28.462Z,58.95
2022-08-05T02:22:31.767Z,58.36
2022-08-05T02:25:08.619Z,58.81
2022-08-05T02:27:58.650Z,59.32
2022-08-05T02:30:30.978Z,59.14
2022-08-05T02:33:00.123Z,59.30
2022-08-05T02:35:33.159Z,59.25
2022-08-05T02:38:05.278Z,59.89
2022-08-05T02:40:37.430Z,59.94
2022-08-05T02:43:07.210Z,59.82
2022-08-05T02:45:52.316Z,60.05
2022-08-05T02:48:29.469Z,59.64
2022-08-05T02:50:59.888Z,59.59
2022-08-05T02:53:28.564Z,59.54
2022-08-05T02:56:06.314Z,59.99
2022-08-05T02:58:35.409Z,60.00
2022-08-05T03:01:02.759Z,60.04
2022-08-05T03:03:34.098Z,59.99
2022-08-05T03:06:54.060Z,59.79
2022-08-05T03:09:07.785Z,59.88
2022-08-05T03:11:53.455Z,59.51
2022-08-05T03:14:20.959Z,59.45
2022-08-05T03:16:47.639Z,59.62
2022-08-05T03:19:20.328Z,59.87
2022-08-05T03:22:00.149Z,59.75
2022-08-05T03:24:30.430Z,59.77
2022-08-05T03:26:59.358Z,59.51
2022-08-05T03:29:46.018Z,59.68
2022-08-05T03:32:14.398Z,59.54
2022-08-05T03:34:42.248Z,59.61
2022-08-05T03:37:18.551Z,59.82
2022-08-05T03:40:01.606Z,59.46
2022-08-05T03:42:32.485Z,59.48
2022-08-05T03:45:21.535Z,59.34
2022-08-05T03:47:50.087Z,59.53
2022-08-05T03:50:16.827Z,59.49
2022-08-05T03:55:50.114Z,59.17
2022-08-05T03:56:10.186Z,59.13
2022-08-05T03:58:41.145Z,59.01
2022-08-05T04:01:11.436Z,59.10
2022-08-05T04:03:42.414Z,59.58
2022-08-05T04:06:29.628Z,59.16
2022-08-05T04:08:56.819Z,59.10
2022-08-05T04:11:24.176Z,59.45
2022-08-05T04:14:10.995Z,59.39
2022-08-05T04:16:44.826Z,59.49
2022-08-05T04:19:13.080Z,59.82
2022-08-05T04:22:08.434Z,60.35
2022-08-05T04:24:27.678Z,60.65
2022-08-05T04:26:54.220Z,60.99
2022-08-05T04:29:20.964Z,60.59
2022-08-05T04:31:48.414Z,60.77
2022-08-05T04:34:18.290Z,60.65
2022-08-05T04:36:58.548Z,60.72
2022-08-05T04:39:25.109Z,60.70
2022-08-05T04:41:54.195Z,60.33
2022-08-05T04:44:30.082Z,60.27
2022-08-05T04:47:08.760Z,59.97
2022-08-05T04:49:38.481Z,60.39
2022-08-05T04:52:23.015Z,60.59
2022-08-05T04:54:54.001Z,60.73
2022-08-05T04:57:23.725Z,60.88
2022-08-05T04:59:55.907Z,61.21
2022-08-05T05:02:36.742Z,61.17
2022-08-05T05:05:16.500Z,61.33
2022-08-05T05:07:56.269Z,61.44
2022-08-05T05:10:29.660Z,61.69
2022-08-05T05:12:56.369Z,62.06
2022-08-05T05:15:56.740Z,61.95
2022-08-05T05:18:15.360Z,61.68
2022-08-05T05:20:55.191Z,62.19
2022-08-05T05:23:21.725Z,62.02
2022-08-05T05:25:48.142Z,62.44
2022-08-05T05:28:14.563Z,62.82
2022-08-05T05:30:42.194Z,62.49
2022-08-05T05:33:16.193Z,62.46
2022-08-05T05:35:48.008Z,62.25
2022-08-05T05:38:22.715Z,62.96
2022-08-05T05:40:54.633Z,63.00
2022-08-05T05:43:56.325Z,63.03
2022-08-05T05:46:16.001Z,62.85
2022-08-05T05:48:45.968Z,62.54
2022-08-05T05:51:21.664Z,62.03
2022-08-05T05:53:57.613Z,61.94
2022-08-05T05:56:33.347Z,61.63
2022-08-05T05:59:05.403Z,61.38
2022-08-05T06:01:37.922Z,61.18
2022-08-05T06:04:11.802Z,60.77
2022-08-05T06:06:43.324Z,61.10
2022-08-05T06:09:17.532Z,60.72
2022-08-05T06:12:01.880Z,61.09
2022-08-05T06:14:30.699Z,61.37
2022-08-05T06:16:57.819Z,61.64
2022-08-05T06:19:32.940Z,61.34
2022-08-05T06:22:02.008Z,61.77
2022-08-05T06:24:28.431Z,61.96
2022-08-05T06:26:55.587Z,62.82
2022-08-05T06:29:42.860Z,63.96
2022-08-05T06:32:25.277Z,65.17
2022-08-05T06:34:56.905Z,65.90
2022-08-05T06:37:57.055Z,66.50
2022-08-05T06:40:12.104Z,67.23
2022-08-05T06:42:39.758Z,67.94
2022-08-05T06:45:08.530Z,68.97
2022-08-05T06:48:35.891Z,69.75
2022-08-05T06:50:21.998Z,69.53
2022-08-05T06:52:58.469Z,69.79
2022-08-05T06:55:25.671Z,70.45
2022-08-05T06:57:58.011Z,70.80
2022-08-05T07:00:38.343Z,71.51
2022-08-05T07:03:09.755Z,71.83
2022-08-05T07:05:37.541Z,71.86
2022-08-05T07:08:10.660Z,71.82
2022-08-05T07:10:37.759Z,71.81
2022-08-05T07:13:54.282Z,71.09
2022-08-05T07:18:01.239Z,70.48
2022-08-05T07:19:16.120Z,70.44
2022-08-05T07:22:01.582Z,70.64
2022-08-05T07:24:29.945Z,70.75
2022-08-05T07:26:56.947Z,70.97
2022-08-05T07:29:25.403Z,71.03
2022-08-05T07:32:12.044Z,70.93
2022-08-05T07:34:42.454Z,70.81
2022-08-05T07:37:11.462Z,70.75
2022-08-05T07:40:04.545Z,69.96
2022-08-05T07:42:33.473Z,69.59
2022-08-05T07:45:01.001Z,69.63
2022-08-05T07:47:27.514Z,69.14
2022-08-05T07:50:09.619Z,69.51
2022-08-05T07:52:40.307Z,68.82
2022-08-05T07:55:15.680Z,69.17
2022-08-05T07:58:02.364Z,68.80
2022-08-05T08:00:29.765Z,68.79
2022-08-05T08:03:15.061Z,68.84
2022-08-05T08:05:49.775Z,68.79
2022-08-05T08:08:16.915Z,69.04
2022-08-05T08:10:48.696Z,69.29
2022-08-05T08:13:15.711Z,68.75
2022-08-05T08:16:35.916Z,68.90
2022-08-05T08:18:35.349Z,68.99
2022-08-05T08:21:09.814Z,68.47
2022-08-05T08:24:02.531Z,68.25
2022-08-05T08:26:29.915Z,67.27
2022-08-05T08:28:59.737Z,66.91
2022-08-05T08:31:43.620Z,66.80
2022-08-05T08:34:10.098Z,66.68
2022-08-05T08:36:48.882Z,66.62
2022-08-05T08:39:19.786Z,66.48
2022-08-05T08:41:52.710Z,66.93
2022-08-05T08:45:18.731Z,67.10
2022-08-05T08:47:47.179Z,67.28
2022-08-05T08:50:31.199Z,67.50
2022-08-05T08:52:56.756Z,67.27
2022-08-05T08:55:32.173Z,67.84
2022-08-05T08:58:12.904Z,67.02
2022-08-05T09:00:41.644Z,67.35
2022-08-05T09:03:09.075Z,67.64
2022-08-05T09:05:39.004Z,67.34
2022-08-05T09:08:26.660Z,67.29
2022-08-05T09:10:53.898Z,66.87
2022-08-05T09:13:20.531Z,66.75
2022-08-05T09:15:50.806Z,66.96
2022-08-05T09:18:17.380Z,67.04
2022-08-05T09:20:45.859Z,66.48
2022-08-05T09:23:19.450Z,66.71
2022-08-05T09:26:06.830Z,66.42
2022-08-05T09:28:38.842Z,66.45
2022-08-05T09:31:18.198Z,66.29
2022-08-05T09:34:04.079Z,66.54
2022-08-05T09:36:56.352Z,66.10
2022-08-05T09:39:39.262Z,65.89
2022-08-05T09:42:13.594Z,66.00
2022-08-05T09:44:50.621Z,65.19
2022-08-05T09:47:20.794Z,65.55
2022-08-05T09:50:01.281Z,65.41
2022-08-05T09:52:36.051Z,65.02
2022-08-05T09:55:57.524Z,64.54
2022-08-05T09:57:58.688Z,64.10
2022-08-05T10:00:26.905Z,63.64
2022-08-05T10:02:54.886Z,63.98
2022-08-05T10:05:27.849Z,64.19
2022-08-05T10:08:36.744Z,64.48
2022-08-05T10:10:43.894Z,63.99
2022-08-05T10:13:10.622Z,63.17
2022-08-05T10:15:39.130Z,63.20
2022-08-05T10:18:16.673Z,63.17
2022-08-05T10:20:48.428Z,62.68
2022-08-05T10:23:34.516Z,62.50
2022-08-05T10:26:07.920Z,62.86
2022-08-05T10:28:42.727Z,62.50
2022-08-05T10:32:53.683Z,62.13
2022-08-05T10:33:59.115Z,61.04
2022-08-05T10:36:27.479Z,61.21
2022-08-05T10:39:05.214Z,61.10
2022-08-05T10:42:01.307Z,60.52
2022-08-05T10:44:29.397Z,59.96
2022-08-05T10:46:56.816Z,60.46
2022-08-05T10:49:27.147Z,60.73
2022-08-05T10:52:03.230Z,60.72
2022-08-05T10:55:01.796Z,59.53
2022-08-05T10:57:33.943Z,59.36
2022-08-05T11:00:17.871Z,58.87
2022-08-05T11:03:25.402Z,58.82
2022-08-05T11:06:15.087Z,58.41
2022-08-05T11:09:32.326Z,59.09
2022-08-05T11:12:26.644Z,58.30
2022-08-05T11:15:19.197Z,57.93
2022-08-05T11:18:09.688Z,57.56
2022-08-05T11:20:44.262Z,55.75
2022-08-05T11:24:05.129Z,56.46
2022-08-05T11:26:35.272Z,55.64
2022-08-05T11:29:11.573Z,55.57
2022-08-05T11:31:57.834Z,56.20
2022-08-05T11:34:51.032Z,55.57
2022-08-05T11:38:36.488Z,56.24
2022-08-05T11:41:14.130Z,56.44
2022-08-05T11:44:12.982Z,55.44
2022-08-05T11:47:14.146Z,55.04
2022-08-05T11:49:49.791Z,54.19
2022-08-05T11:52:29.165Z,53.40
2022-08-05T11:54:57.984Z,53.99
2022-08-05T11:57:29.285Z,54.30
2022-08-05T11:59:57.890Z,53.78
2022-08-05T12:02:31.217Z,52.67
2022-08-05T12:05:00.538Z,51.81
2022-08-05T12:08:09.256Z,51.35
2022-08-05T12:10:22.995Z,51.48
2022-08-05T12:12:59.956Z,51.71
2022-08-05T12:15:37.954Z,51.76
2022-08-05T12:18:11.073Z,50.41
2022-08-05T12:20:39.098Z,49.62
2022-08-05T12:23:12.522Z,49.34
2022-08-05T12:26:09.089Z,49.65
2022-08-05T12:28:38.924Z,48.95
2022-08-05T12:31:05.696Z,48.28
2022-08-05T12:33:36.274Z,47.59
2022-08-05T12:36:07.082Z,47.44
2022-08-05T12:38:38.035Z,47.16
2022-08-05T12:41:13.338Z,46.68
2022-08-05T12:44:11.588Z,47.42
2022-08-05T12:46:45.640Z,47.10
2022-08-05T12:49:14.958Z,47.55
2022-08-05T12:52:13.788Z,47.78
2022-08-05T12:54:49.797Z,48.08
2022-08-05T12:57:16.835Z,47.37
2022-08-05T13:01:57.839Z,48.28
2022-08-05T13:02:37.188Z,48.27
2022-08-05T13:05:07.574Z,48.21
2022-08-05T13:10:21.782Z,48.04
2022-08-05T13:12:51.322Z,48.24
2022-08-05T13:15:35.939Z,48.37
2022-08-05T13:18:08.441Z,49.07
2022-08-05T13:20:40.437Z,48.85
2022-08-05T13:23:07.600Z,48.85
2022-08-05T13:25:52.133Z,48.84
2022-08-05T13:28:21.862Z,46.95
2022-08-05T13:30:48.781Z,47.05
2022-08-05T13:34:22.108Z,46.39
2022-08-05T13:36:05.241Z,45.24
2022-08-05T13:38:38.171Z,44.59
2022-08-05T13:41:09.394Z,44.89
2022-08-05T13:43:44.163Z,44.76
2022-08-05T13:46:43.797Z,44.43
2022-08-05T13:49:10.112Z,43.35
2022-08-05T13:51:41.116Z,41.11
2022-08-05T13:54:13.445Z,40.52
2022-08-05T13:56:45.548Z,40.30
2022-08-05T13:59:24.418Z,39.85
2022-08-05T14:01:56.770Z,39.54
2022-08-05T14:04:55.949Z,39.10
2022-08-05T14:08:00.987Z,37.44
2022-08-05T14:10:19.217Z,36.66
2022-08-05T14:12:54.974Z,36.86
2022-08-05T14:16:07.758Z,36.37
2022-08-05T14:18:15.271Z,36.83
2022-08-05T14:20:47.059Z,36.26
2022-08-05T14:23:13.920Z,35.36
2022-08-05T14:25:47.465Z,35.57
2022-08-05T14:28:26.718Z,35.19
2022-08-05T14:30:54.553Z,35.40
2022-08-05T14:33:22.560Z,35.16
2022-08-05T14:35:51.493Z,34.03
2022-08-05T14:38:33.299Z,34.28
2022-08-05T14:41:06.627Z,34.11
2022-08-05T14:43:58.767Z,34.05
2022-08-05T14:46:21.887Z,33.54
2022-08-05T14:48:49.931Z,32.67
2022-08-05T14:51:17.556Z,32.75
2022-08-05T15:08:58.036Z,36.32
2022-08-05T15:11:07.972Z,35.88
2022-08-05T15:13:45.896Z,35.17
2022-08-05T15:16:16.714Z,34.86
2022-08-05T15:18:43.591Z,33.33
2022-08-05T15:21:13.949Z,32.93
2022-08-05T15:23:40.463Z,32.12
2022-08-05T15:26:06.921Z,32.47
2022-08-05T15:28:33.698Z,32.61
2022-08-05T15:31:00.199Z,32.67
2022-08-05T15:34:04.787Z,32.26
2022-08-05T15:36:25.827Z,33.59
2022-08-05T15:40:59.023Z,33.56
2022-08-05T15:41:55.911Z,33.76
2022-08-05T15:44:27.424Z,33.26
2022-08-05T15:46:54.611Z,33.24
2022-08-05T15:49:40.935Z,33.48
2022-08-05T15:52:13.269Z,33.51
2022-08-05T15:54:42.811Z,34.33
2022-08-05T15:57:09.649Z,34.15
2022-08-05T15:59:38.092Z,34.13
2022-08-05T16:02:09.477Z,33.92
2022-08-05T16:04:41.589Z,33.77
2022-08-05T16:07:10.780Z,34.24
2022-08-05T16:09:37.464Z,33.98
2022-08-05T16:12:08.655Z,32.22
2022-08-05T16:14:35.205Z,32.51
2022-08-05T16:17:01.668Z,32.39
2022-08-05T16:20:05.131Z,31.84
2022-08-05T16:22:15.896Z,32.08
2022-08-05T16:24:51.945Z,31.70
2022-08-05T16:27:18.904Z,31.02
2022-08-05T16:29:50.335Z,30.16
2022-08-05T16:32:18.339Z,29.64
2022-08-05T16:34:54.906Z,29.31
2022-08-05T16:38:15.435Z,29.55
2022-08-05T16:40:24.739Z,29.78
2022-08-05T16:42:52.093Z,29.49
2022-08-05T16:46:07.589Z,29.81
2022-08-05T16:48:05.166Z,30.14
2022-08-05T16:50:31.577Z,30.00
2022-08-05T16:52:58.842Z,30.38
2022-08-05T16:55:46.719Z,30.25
2022-08-05T16:58:13.716Z,30.72
2022-08-05T17:00:40.810Z,30.25
2022-08-05T17:03:15.143Z,30.07
2022-08-05T17:05:48.989Z,29.86
2022-08-05T17:08:35.920Z,29.97
2022-08-05T17:11:08.806Z,29.21
2022-08-05T17:13:42.195Z,29.34
2022-08-05T17:16:27.905Z,29.63
2022-08-05T17:18:55.730Z,30.47
2022-08-05T17:21:23.788Z,30.67
2022-08-05T17:24:04.711Z,30.23
2022-08-05T17:26:37.136Z,29.53
2022-08-05T17:29:07.480Z,29.61
2022-08-05T17:31:56.450Z,29.81
2022-08-05T17:34:29.895Z,29.93
2022-08-05T17:36:59.828Z,29.66
2022-08-05T17:39:33.180Z,29.38
2022-08-05T17:42:20.257Z,29.80
2022-08-05T17:44:50.871Z,28.90
2022-08-05T17:47:21.932Z,28.93
2022-08-05T17:49:52.287Z,27.99
2022-08-05T17:52:30.396Z,28.42
2022-08-05T17:54:57.689Z,28.40
2022-08-05T17:57:24.563Z,28.24
2022-08-05T18:00:04.973Z,28.54
2022-08-05T18:02:35.460Z,28.97
2022-08-05T18:05:06.372Z,29.40
2022-08-05T18:07:41.166Z,29.08
2022-08-05T18:10:20.308Z,28.49
2022-08-05T18:12:51.266Z,28.58
2022-08-05T18:15:18.024Z,28.86
2022-08-05T18:17:58.890Z,29.12
2022-08-05T18:20:29.167Z,29.89
2022-08-05T18:22:58.520Z,30.14
2022-08-05T18:25:32.975Z,30.58
2022-08-05T18:28:01.686Z,30.90
2022-08-05T18:30:32.274Z,31.31
2022-08-05T18:33:00.333Z,30.81
2022-08-05T18:35:28.271Z,30.72
2022-08-05T18:38:18.918Z,30.81
2022-08-05T18:41:56.359Z,30.70
2022-08-05T18:43:37.865Z,30.84
2022-08-05T18:46:06.971Z,30.95
2022-08-05T18:48:36.822Z,31.14
2022-08-05T18:52:04.847Z,31.22
2022-08-05T18:54:13.660Z,31.31
2022-08-05T18:56:40.779Z,31.31
2022-08-05T18:59:43.324Z,31.52
2022-08-05T19:01:57.233Z,32.17
2022-08-05T19:04:25.252Z,32.53
2022-08-05T19:06:53.787Z,32.55
2022-08-05T19:09:21.428Z,32.98
2022-08-05T19:12:00.752Z,33.74
2022-08-05T19:14:37.843Z,33.79
2022-08-05T19:17:15.562Z,34.31
2022-08-05T19:19:47.082Z,34.75
2022-08-05T19:22:17.138Z,34.92
2022-08-05T19:24:55.751Z,35.51
2022-08-05T19:27:30.453Z,35.66
2022-08-05T19:29:57.901Z,35.78
2022-08-05T19:32:26.282Z,35.97
2022-08-05T19:34:55.822Z,36.41
2022-08-05T19:37:34.893Z,36.47
2022-08-05T19:40:12.066Z,36.74
2022-08-05T19:42:39.238Z,36.76
2022-08-05T19:45:07.299Z,37.07
2022-08-05T19:47:37.118Z,37.12
2022-08-05T19:50:07.533Z,37.45
2022-08-05T19:52:37.565Z,37.62
2022-08-05T19:55:07.665Z,37.88
2022-08-05T19:58:07.044Z,37.85
2022-08-05T20:00:38.895Z,38.02
2022-08-05T20:03:08.761Z,38.20
2022-08-05T20:05:43.312Z,38.25
2022-08-05T20:08:17.699Z,38.43
2022-08-05T20:10:44.601Z,38.71
2022-08-05T20:13:16.421Z,38.91
2022-08-05T20:15:50.804Z,38.93
2022-08-05T20:18:35.989Z,39.22
2022-08-05T20:21:05.270Z,39.28
2022-08-05T20:23:40.738Z,39.26
2022-08-05T20:26:17.909Z,39.56
2022-08-05T20:28:56.204Z,39.48
2022-08-05T20:31:36.785Z,39.67
2022-08-05T20:34:10.215Z,39.77
2022-08-05T20:36:39.143Z,39.81
2022-08-05T20:39:13.146Z,39.76
2022-08-05T20:41:44.254Z,39.90
2022-08-05T20:44:18.650Z,40.18
2022-08-05T20:46:47.149Z,40.47
2022-08-05T20:49:14.246Z,40.07
2022-08-05T20:51:45.081Z,40.56
2022-08-05T20:54:20.206Z,40.61
2022-08-05T20:56:47.011Z,40.77
2022-08-05T20:59:26.503Z,41.03
2022-08-05T21:01:56.492Z,41.02
2022-08-05T21:04:26.910Z,40.98
2022-08-05T21:06:54.137Z,41.26
2022-08-05T21:09:20.778Z,41.21
2022-08-05T21:12:07.726Z,41.12
2022-08-05T21:14:35.273Z,41.24
2022-08-05T21:17:04.942Z,41.55
2022-08-05T21:19:47.401Z,41.60
2022-08-05T21:22:18.582Z,41.94
2022-08-05T21:24:51.845Z,41.61
2022-08-05T21:27:20.565Z,41.94
2022-08-05T21:29:51.080Z,41.92
2022-08-05T21:32:20.084Z,42.54
2022-08-05T21:34:55.811Z,42.11
2022-08-05T21:37:33.433Z,42.29
2022-08-05T21:40:05.719Z,42.62
2022-08-05T21:42:44.125Z,42.68
2022-08-05T21:45:12.140Z,42.75
2022-08-05T21:47:56.384Z,42.86
2022-08-05T21:50:24.095Z,43.00
2022-08-05T21:52:50.531Z,43.71
2022-08-05T21:55:21.614Z,43.71
2022-08-05T21:58:05.418Z,43.88
2022-08-05T22:00:32.026Z,43.78
2022-08-05T22:02:58.624Z,43.97
2022-08-05T22:05:27.226Z,44.21
2022-08-05T22:07:59.303Z,44.31
2022-08-05T22:10:29.114Z,44.98
2022-08-05T22:12:59.058Z,44.78
2022-08-05T22:16:01.136Z,45.02
2022-08-05T22:18:24.894Z,45.01
2022-08-05T22:20:52.480Z,45.22
2022-08-05T22:24:02.056Z,45.38
2022-08-05T22:26:42.568Z,45.68
2022-08-05T22:29:17.542Z,45.51
2022-08-05T22:31:45.540Z,45.53
2022-08-05T22:34:28.329Z,45.80
2022-08-05T22:36:56.545Z,45.52
2022-08-05T22:39:29.660Z,45.91
2022-08-05T22:42:10.231Z,46.37
2022-08-05T22:44:38.519Z,45.98
2022-08-05T22:47:05.998Z,46.39
2022-08-05T22:50:18.526Z,46.50
2022-08-05T22:52:30.594Z,46.52
2022-08-05T22:55:01.225Z,46.77
2022-08-05T22:57:34.245Z,46.64
2022-08-05T23:00:07.991Z,46.23
2022-08-05T23:02:35.606Z,46.75
2022-08-05T23:05:14.143Z,46.86
2022-08-05T23:07:44.875Z,46.93
2022-08-05T23:10:12.637Z,47.06
2022-08-05T23:12:39.250Z,47.06
2022-08-05T23:15:09.029Z,47.28
2022-08-05T23:17:37.936Z,47.57
2022-08-05T23:20:24.414Z,47.54
2022-08-05T23:22:52.799Z,47.92
2022-08-05T23:25:54.908Z,48.14
2022-08-05T23:28:10.068Z,48.01
2022-08-05T23:30:40.248Z,48.33
2022-08-05T23:33:21.871Z,48.90
2022-08-05T23:35:55.803Z,48.70
2022-08-05T23:38:24.087Z,49.05
2022-08-05T23:40:52.836Z,49.22
2022-08-05T23:43:25.091Z,49.13
2022-08-05T23:46:04.229Z,49.08
2022-08-05T23:48:30.832Z,49.29
2022-08-05T23:50:57.444Z,49.53
2022-08-05T23:53:28.332Z,49.26
2022-08-05T23:56:12.055Z,49.46
2022-08-05T23:58:38.589Z,49.51
